Time;durP1;ratioP1;P1;durP2;ratioP2;P2;SDS_P1;SDS_P2;PMS_P1;PMS_P2;Temp;Humidity;BMP_temperature;BMP_pressure;BME280_temperature;BME280_humidity;BME280_pressure;Samples;Min_cycle;Max_cycle;Signal;HPM_P1;HPM_P2
2022/08/04 00:01:04;;;;;;;;;;;;;;;;;;2202197;67;1173;-65
2022/08/04 00:03:44;;;;;;;;;;;;;;;;;;2202224;59;1400;-64
2022/08/04 00:06:22;;;;;;;;;;;;;;;;;;2201690;60;1274;-64
2022/08/04 00:08:58;;;;;;;;;;;;;;;;;;2201979;67;1248;-63
2022/08/04 00:11:32;;;;;;;;;;;;;;;;;;2202026;59;1234;-64
2022/08/04 00:14:06;;;;;;;;;;;;;;;;;;2201698;67;1196;-64
2022/08/04 00:16:42;;;;;;;;;;;;;;;;;;2201878;59;1954;-64
2022/08/04 00:19:20;;;;;;;;;;;;;;;;;;2201732;67;1196;-64
2022/08/04 00:21:57;;;;;;;;;;;;;;;;;;2202693;67;1229;-65
2022/08/04 00:24:31;;;;;;;;;;;;;;;;;;2201851;67;1179;-63
2022/08/04 00:27:05;;;;;;;;;;;;;;;;;;2201997;67;1176;-64
2022/08/04 00:29:39;;;;;;;;;;;;;;;;;;2202245;67;1185;-65
2022/08/04 00:32:13;;;;;;;;;;;;;;;;;;2201839;67;1992;-65
2022/08/04 00:34:49;;;;;;;;;;;;;;;;;;2201204;67;1191;-64
2022/08/04 00:37:23;;;;;;;;;;;;;;;;;;2202334;59;1564;-64
2022/08/04 00:39:57;;;;;;;;;;;;;;;;;;2202612;67;1149;-64
2022/08/04 00:42:40;;;;;;;;;;;;;;;;;;2201630;67;1031;-63
2022/08/04 00:45:27;;;;;;;;;;;;;;;;;;2202536;67;1196;-65
2022/08/04 00:48:06;;;;;;;;;;;;;;;;;;2201904;67;1178;-62
2022/08/04 00:50:45;;;;;;;;;;;;;;;;;;2201709;67;1228;-64
2022/08/04 00:53:26;;;;;;;;;;;;;;;;;;2201979;67;1988;-64
2022/08/04 00:56:05;;;;;;;;;;;;;;;;;;2202284;67;1213;-64
2022/08/04 00:58:48;;;;;;;;;;;;;;;;;;2201479;67;1260;-64
2022/08/04 01:01:30;;;;;;;;;;;;;;;;;;2201743;67;1292;-63
2022/08/04 01:04:05;;;;;;;;;;;;;;;;;;2201800;59;1211;-65
2022/08/04 01:06:53;;;;;;;;;;;;;;;;;;2201295;59;1395;-64
2022/08/04 01:09:29;;;;;;;;;;;;;;;;;;2201544;67;1182;-64
2022/08/04 01:12:09;;;;;;;;;;;;;;;;;;2201925;59;1929;-63
2022/08/04 01:14:53;;;;;;;;;;;;;;;;;;2201713;67;1164;-65
2022/08/04 01:17:27;;;;;;;;;;;;;;;;;;2201533;59;1212;-63
2022/08/04 01:20:07;;;;;;;;;;;;;;;;;;2201561;67;1288;-65
2022/08/04 01:23:04;;;;;;;;;;;;;;;;;;2202626;67;1122;-60
2022/08/04 01:25:53;;;;;;;;;;;;;;;;;;2197539;67;1385;-59
2022/08/04 01:28:31;;;;;;;;;;;;;;;;;;2201663;67;1240;-62
2022/08/04 01:31:12;;;;;;;;;;;;;;;;;;2202028;67;1116;-62
2022/08/04 01:33:48;;;;;;;;;;;;;;;;;;2201626;67;2029;-63
2022/08/04 01:36:26;;;;;;;;;;;;;;;;;;2201964;59;1478;-64
2022/08/04 01:38:59;;;;;;;;;;;;;;;;;;2202650;59;1602;-65
2022/08/04 01:41:53;;;;;;;;;;;;;;;;;;2202897;67;2095;-64
2022/08/04 01:44:28;;;;;;;;;;;;;;;;;;2202232;59;1172;-62
2022/08/04 01:47:05;;;;;;;;;;;;;;;;;;2203112;67;1198;-64
2022/08/04 01:49:39;;;;;;;;;;;;;;;;;;2202404;67;1217;-63
2022/08/04 01:52:12;;;;;;;;;;;;;;;;;;2202950;67;1894;-64
2022/08/04 01:54:46;;;;;;;;;;;;;;;;;;2201951;67;1288;-64
2022/08/04 01:57:20;;;;;;;;;;;;;;;;;;2202336;67;1083;-64
2022/08/04 01:59:54;;;;;;;;;;;;;;;;;;2201914;67;1230;-64
2022/08/04 02:02:30;;;;;;;;;;;;;;;;;;2201058;59;1412;-64
2022/08/04 02:05:03;;;;;;;;;;;;;;;;;;2202096;59;2647;-64
2022/08/04 02:07:42;;;;;;;;;;;;;;;;;;2201103;67;1220;-64
2022/08/04 02:10:19;;;;;;;;;;;;;;;;;;2202047;67;1223;-64
2022/08/04 02:12:57;;;;;;;;;;;;;;;;;;2202324;59;1931;-65
2022/08/04 02:15:32;;;;;;;;;;;;;;;;;;2202142;59;1304;-64
2022/08/04 02:18:24;;;;;;;;;;;;;;;;;;2202145;59;1312;-63
2022/08/04 02:20:59;;;;;;;;;;;;;;;;;;2202265;67;1263;-63
2022/08/04 02:23:36;;;;;;;;;;;;;;;;;;2202552;67;1111;-63
2022/08/04 02:26:13;;;;;;;;;;;;;;;;;;2201967;67;1292;-65
2022/08/04 02:28:49;;;;;;;;;;;;;;;;;;2202024;67;1203;-62
2022/08/04 02:31:29;;;;;;;;;;;;;;;;;;2200946;67;1272;-64
2022/08/04 02:34:09;;;;;;;;;;;;;;;;;;2202349;67;1924;-64
2022/08/04 02:36:43;;;;;;;;;;;;;;;;;;2202287;59;1367;-64
2022/08/04 02:39:20;;;;;;;;;;;;;;;;;;2202086;59;1690;-65
2022/08/04 02:41:54;;;;;;;;;;;;;;;;;;2201732;67;1304;-63
2022/08/04 02:44:29;;;;;;;;;;;;;;;;;;2202053;67;1269;-65
2022/08/04 02:47:03;;;;;;;;;;;;;;;;;;2201809;67;1220;-64
2022/08/04 02:49:41;;;;;;;;;;;;;;;;;;2201912;67;1279;-65
2022/08/04 02:52:16;;;;;;;;;;;;;;;;;;2201682;67;1194;-64
2022/08/04 02:54:51;;;;;;;;;;;;;;;;;;2201350;67;1987;-64
2022/08/04 02:57:26;;;;;;;;;;;;;;;;;;2201533;67;1229;-64
2022/08/04 03:00:05;;;;;;;;;;;;;;;;;;2201441;67;1272;-64
2022/08/04 03:02:47;;;;;;;;;;;;;;;;;;2201074;59;1514;-65
2022/08/04 03:05:26;;;;;;;;;;;;;;;;;;2201127;59;1321;-64
2022/08/04 03:08:08;;;;;;;;;;;;;;;;;;2201412;59;1349;-63
2022/08/04 03:10:59;;;;;;;;;;;;;;;;;;2200750;59;1255;-64
2022/08/04 03:13:47;;;;;;;;;;;;;;;;;;2202278;59;1941;-63
2022/08/04 03:16:31;;;;;;;;;;;;;;;;;;2199371;59;1677;-64
2022/08/04 03:19:19;;;;;;;;;;;;;;;;;;2201144;67;1110;-65
2022/08/04 03:22:22;;;;;;;;;;;;;;;;;;2201568;59;1480;-64
2022/08/04 03:25:10;;;;;;;;;;;;;;;;;;2187930;67;1739;-63
2022/08/04 03:28:01;;;;;;;;;;;;;;;;;;2199571;67;2563;-64
2022/08/04 03:30:44;;;;;;;;;;;;;;;;;;2201066;67;1153;-64
2022/08/04 03:33:39;;;;;;;;;;;;;;;;;;2200854;67;1929;-63
2022/08/04 03:36:33;;;;;;;;;;;;;;;;;;2200829;59;1426;-64
2022/08/04 03:39:21;;;;;;;;;;;;;;;;;;2201047;59;1730;-64
2022/08/04 03:42:07;;;;;;;;;;;;;;;;;;2200972;59;1153;-63
2022/08/04 03:45:03;;;;;;;;;;;;;;;;;;2200911;67;1327;-64
2022/08/04 03:47:45;;;;;;;;;;;;;;;;;;2201529;67;1203;-64
2022/08/04 03:50:36;;;;;;;;;;;;;;;;;;2201155;67;1253;-64
2022/08/04 03:53:30;;;;;;;;;;;;;;;;;;2200690;67;1937;-64
2022/08/04 03:56:17;;;;;;;;;;;;;;;;;;2200935;67;1275;-64
2022/08/04 03:58:58;;;;;;;;;;;;;;;;;;2201504;67;1266;-63
2022/08/04 04:01:44;;;;;;;;;;;;;;;;;;2202573;59;1348;-61
2022/08/04 04:04:40;;;;;;;;;;;;;;;;;;2202274;59;1685;-63
2022/08/04 04:07:27;;;;;;;;;;;;;;;;;;2202419;67;1187;-63
2022/08/04 04:10:10;;;;;;;;;;;;;;;;;;2202173;67;1275;-63
2022/08/04 04:12:58;;;;;;;;;;;;;;;;;;2202831;59;1365;-63
2022/08/04 04:15:45;;;;;;;;;;;;;;;;;;2196809;59;1297;-62
2022/08/04 04:18:26;;;;;;;;;;;;;;;;;;2203012;59;1204;-61
2022/08/04 04:21:07;;;;;;;;;;;;;;;;;;2202785;67;1584;-64
2022/08/04 04:23:54;;;;;;;;;;;;;;;;;;2204168;67;1195;-61
2022/08/04 04:26:38;;;;;;;;;;;;;;;;;;2204269;67;1249;-62
2022/08/04 04:29:22;;;;;;;;;;;;;;;;;;2205293;67;1096;-60
2022/08/04 04:32:02;;;;;;;;;;;;;;;;;;2203960;67;1229;-59
2022/08/04 04:34:42;;;;;;;;;;;;;;;;;;2204857;67;1987;-58
2022/08/04 04:37:21;;;;;;;;;;;;;;;;;;2203823;59;2225;-62
2022/08/04 04:40:01;;;;;;;;;;;;;;;;;;2203752;67;1337;-62
2022/08/04 04:42:45;;;;;;;;;;;;;;;;;;2204095;67;1205;-63
2022/08/04 04:45:25;;;;;;;;;;;;;;;;;;2204395;67;1256;-63
2022/08/04 04:48:00;;;;;;;;;;;;;;;;;;2200528;67;1953;-59
2022/08/04 04:50:41;;;;;;;;;;;;;;;;;;2204363;67;1157;-61
2022/08/04 04:53:29;;;;;;;;;;;;;;;;;;2200595;67;1431;-62
2022/08/04 04:56:11;;;;;;;;;;;;;;;;;;2200471;67;1837;-64
2022/08/04 04:58:44;;;;;;;;;;;;;;;;;;2203992;67;1324;-64
2022/08/04 05:01:26;;;;;;;;;;;;;;;;;;2203509;59;1474;-62
2022/08/04 05:04:17;;;;;;;;;;;;;;;;;;2203751;59;1418;-63
2022/08/04 05:07:08;;;;;;;;;;;;;;;;;;2200732;67;1816;-64
2022/08/04 05:09:48;;;;;;;;;;;;;;;;;;2204051;67;1160;-62
2022/08/04 05:12:40;;;;;;;;;;;;;;;;;;2203831;59;1278;-62
2022/08/04 05:15:17;;;;;;;;;;;;;;;;;;2200188;59;1972;-62
2022/08/04 05:57:54;;;;;;;;;;;;;;;;;;2368114;53;1939;-79
2022/08/04 06:00:29;;;;;;;;;;;;;;;;;;2203855;67;1209;-78
2022/08/04 06:03:03;;;;;;;;;;;;;;;;;;2204752;59;1503;-77
2022/08/04 06:05:37;;;;;;;;;;;;;;;;;;2205268;67;1716;-76
2022/08/04 06:08:11;;;;;;;;;;;;;;;;;;2205587;67;1226;-77
2022/08/04 06:21:29;;;;;;;;;;;;;;;;;;2351770;53;1672;-78
2022/08/04 06:24:04;;;;;;;;;;;;;;;;;;2203897;59;1184;-78
2022/08/04 06:26:39;;;;;;;;;;;;;;;;;;2204984;67;1135;-77
2022/08/04 06:29:16;;;;;;;;;;;;;;;;;;2204759;59;2142;-77
2022/08/04 06:31:57;;;;;;;;;;;;;;;;;;2203446;59;1217;-80
2022/08/04 06:34:30;;;;;;;;;;;;;;;;;;2201020;59;1928;-76
2022/08/04 06:37:08;;;;;;;;;;;;;;;;;;2200956;59;1428;-77
2022/08/04 06:39:41;;;;;;;;;;;;;;;;;;2201174;67;1146;-78
2022/08/04 06:42:14;;;;;;;;;;;;;;;;;;2200972;67;1228;-78
2022/08/04 06:44:50;;;;;;;;;;;;;;;;;;2200864;59;1203;-77
2022/08/04 06:47:24;;;;;;;;;;;;;;;;;;2201027;59;1329;-76
2022/08/04 06:49:58;;;;;;;;;;;;;;;;;;2201208;67;1236;-76
2022/08/04 06:52:34;;;;;;;;;;;;;;;;;;2200959;60;1193;-78
2022/08/04 06:55:08;;;;;;;;;;;;;;;;;;2200580;67;1920;-78
2022/08/04 06:57:42;;;;;;;;;;;;;;;;;;2196911;67;1181;-77
2022/08/04 07:00:18;;;;;;;;;;;;;;;;;;2200369;67;1224;-76
2022/08/04 07:02:52;;;;;;;;;;;;;;;;;;2200675;59;1340;-77
2022/08/04 07:05:26;;;;;;;;;;;;;;;;;;2200433;59;1222;-77
2022/08/04 07:08:02;;;;;;;;;;;;;;;;;;2200310;59;1273;-76
2022/08/04 07:10:35;;;;;;;;;;;;;;;;;;2200213;59;1275;-76
2022/08/04 07:13:09;;;;;;;;;;;;;;;;;;2200569;59;1591;-77
2022/08/04 07:15:45;;;;;;;;;;;;;;;;;;2196484;67;2006;-76
2022/08/04 07:18:18;;;;;;;;;;;;;;;;;;2196502;67;1217;-78
2022/08/04 07:20:52;;;;;;;;;;;;;;;;;;2200311;59;1320;-78
2022/08/04 07:23:28;;;;;;;;;;;;;;;;;;2199672;67;1153;-76
2022/08/04 07:26:01;;;;;;;;;;;;;;;;;;2200342;67;1126;-77
2022/08/04 07:28:34;;;;;;;;;;;;;;;;;;2200098;67;1157;-77
2022/08/04 07:31:07;;;;;;;;;;;;;;;;;;2199318;67;1165;-76
2022/08/04 07:33:41;;;;;;;;;;;;;;;;;;2200942;59;1193;-76
2022/08/04 07:36:15;;;;;;;;;;;;;;;;;;2200397;59;1993;-77
2022/08/04 07:38:51;;;;;;;;;;;;;;;;;;2201655;59;1699;-76
2022/08/04 07:41:25;;;;;;;;;;;;;;;;;;2200755;67;1303;-76
2022/08/04 07:43:58;;;;;;;;;;;;;;;;;;2201344;67;1171;-76
2022/08/04 07:46:31;;;;;;;;;;;;;;;;;;2200815;67;1113;-76
2022/08/04 07:49:05;;;;;;;;;;;;;;;;;;2200375;67;1169;-76
2022/08/04 07:51:38;;;;;;;;;;;;;;;;;;2200833;67;1214;-76
2022/08/04 07:54:14;;;;;;;;;;;;;;;;;;2200809;67;1935;-76
2022/08/04 07:56:48;;;;;;;;;;;;;;;;;;2200863;67;1150;-76
2022/08/04 07:59:21;;;;;;;;;;;;;;;;;;2200919;67;1184;-76
2022/08/04 08:01:55;;;;;;;;;;;;;;;;;;2200626;59;1579;-76
2022/08/04 08:04:28;;;;;;;;;;;;;;;;;;2200028;59;1271;-76
2022/08/04 08:07:01;;;;;;;;;;;;;;;;;;2197769;67;1269;-76
2022/08/04 08:09:37;;;;;;;;;;;;;;;;;;2199789;59;1268;-76
2022/08/04 08:12:10;;;;;;;;;;;;;;;;;;2196803;59;1304;-77
2022/08/04 08:14:44;;;;;;;;;;;;;;;;;;2199729;67;1932;-77
2022/08/04 08:17:17;;;;;;;;;;;;;;;;;;2200921;59;1572;-76
2022/08/04 08:19:50;;;;;;;;;;;;;;;;;;2200027;67;1262;-77
2022/08/04 08:22:24;;;;;;;;;;;;;;;;;;2200398;59;1264;-77
2022/08/04 08:25:00;;;;;;;;;;;;;;;;;;2201159;67;1158;-76
2022/08/04 08:27:33;;;;;;;;;;;;;;;;;;2200848;67;1165;-77
2022/08/04 08:30:07;;;;;;;;;;;;;;;;;;2201553;59;1029;-77
2022/08/04 08:32:40;;;;;;;;;;;;;;;;;;2200713;67;1280;-76
2022/08/04 08:35:13;;;;;;;;;;;;;;;;;;2200133;67;1929;-76
2022/08/04 08:37:49;;;;;;;;;;;;;;;;;;2201525;59;1691;-76
2022/08/04 08:40:32;;;;;;;;;;;;;;;;;;2200189;67;1278;-77
2022/08/04 08:43:29;;;;;;;;;;;;;;;;;;2201330;67;1186;-77
2022/08/04 08:46:27;;;;;;;;;;;;;;;;;;2198955;67;1607;-77
2022/08/04 08:49:21;;;;;;;;;;;;;;;;;;2200524;59;1232;-77
2022/08/04 08:52:01;;;;;;;;;;;;;;;;;;2201105;67;1282;-77
2022/08/04 08:54:45;;;;;;;;;;;;;;;;;;2200414;67;1931;-76
2022/08/04 08:57:31;;;;;;;;;;;;;;;;;;2200331;67;1221;-76
2022/08/04 09:00:09;;;;;;;;;;;;;;;;;;2201328;67;1214;-77
2022/08/04 09:03:01;;;;;;;;;;;;;;;;;;2200790;59;1576;-77
2022/08/04 09:05:43;;;;;;;;;;;;;;;;;;2200543;67;1184;-76
2022/08/04 09:08:39;;;;;;;;;;;;;;;;;;2200600;67;1085;-76
2022/08/04 09:11:16;;;;;;;;;;;;;;;;;;2200735;59;1336;-76
2022/08/04 09:13:56;;;;;;;;;;;;;;;;;;2200883;67;1188;-76
2022/08/04 09:16:33;;;;;;;;;;;;;;;;;;2200762;59;1932;-77
2022/08/04 09:19:10;;;;;;;;;;;;;;;;;;2201326;67;1172;-77
2022/08/04 09:21:48;;;;;;;;;;;;;;;;;;2200406;59;1265;-77
2022/08/04 09:24:27;;;;;;;;;;;;;;;;;;2200352;67;1116;-76
2022/08/04 09:27:02;;;;;;;;;;;;;;;;;;2197220;67;1288;-77
2022/08/04 09:29:41;;;;;;;;;;;;;;;;;;2200601;67;1201;-77
2022/08/04 09:32:21;;;;;;;;;;;;;;;;;;2200854;59;1244;-77
2022/08/04 09:34:58;;;;;;;;;;;;;;;;;;2200370;67;1948;-77
2022/08/04 09:37:34;;;;;;;;;;;;;;;;;;2201339;59;1600;-76
2022/08/04 09:40:09;;;;;;;;;;;;;;;;;;2200675;59;1239;-77
2022/08/04 09:42:46;;;;;;;;;;;;;;;;;;2199981;67;1239;-76
2022/08/04 09:45:25;;;;;;;;;;;;;;;;;;2199782;67;1203;-76
2022/08/04 09:48:00;;;;;;;;;;;;;;;;;;2200368;67;1169;-76
2022/08/04 09:50:36;;;;;;;;;;;;;;;;;;2201083;67;1161;-76
2022/08/04 09:53:18;;;;;;;;;;;;;;;;;;2200342;67;1310;-77
2022/08/04 09:55:55;;;;;;;;;;;;;;;;;;2200744;67;1971;-76
2022/08/04 09:58:40;;;;;;;;;;;;;;;;;;2199761;67;1300;-77
2022/08/04 10:01:19;;;;;;;;;;;;;;;;;;2199707;59;1627;-76
2022/08/04 10:03:53;;;;;;;;;;;;;;;;;;2200390;59;1270;-76
2022/08/04 10:06:41;;;;;;;;;;;;;;;;;;2200767;59;1208;-76
2022/08/04 10:09:19;;;;;;;;;;;;;;;;;;2200224;67;1253;-77
2022/08/04 10:12:05;;;;;;;;;;;;;;;;;;2198772;59;1466;-77
2022/08/04 10:14:40;;;;;;;;;;;;;;;;;;2200922;67;1082;-76
2022/08/04 10:17:21;;;;;;;;;;;;;;;;;;2201534;59;1948;-77
2022/08/04 10:19:57;;;;;;;;;;;;;;;;;;2202226;67;1238;-77
2022/08/04 10:22:33;;;;;;;;;;;;;;;;;;2202489;59;1240;-76
2022/08/04 10:25:10;;;;;;;;;;;;;;;;;;2201352;67;1286;-77
2022/08/04 10:27:47;;;;;;;;;;;;;;;;;;2202591;67;1234;-77
2022/08/04 10:30:21;;;;;;;;;;;;;;;;;;2202585;67;1216;-77
2022/08/04 10:33:02;;;;;;;;;;;;;;;;;;2201827;67;1262;-76
2022/08/04 10:35:39;;;;;;;;;;;;;;;;;;2203052;67;1933;-76
2022/08/04 10:38:18;;;;;;;;;;;;;;;;;;2201556;59;1759;-76
2022/08/04 10:40:57;;;;;;;;;;;;;;;;;;2203222;67;1226;-77
2022/08/04 10:43:35;;;;;;;;;;;;;;;;;;2202807;67;1197;-77
2022/08/04 10:46:10;;;;;;;;;;;;;;;;;;2200713;67;1226;-76
2022/08/04 10:48:52;;;;;;;;;;;;;;;;;;2203368;59;1326;-75
2022/08/04 10:51:27;;;;;;;;;;;;;;;;;;2202168;67;1250;-77
2022/08/04 10:54:02;;;;;;;;;;;;;;;;;;2202311;67;1295;-75
2022/08/04 10:56:40;;;;;;;;;;;;;;;;;;2203407;67;1939;-76
2022/08/04 10:59:17;;;;;;;;;;;;;;;;;;2201633;67;1179;-75
2022/08/04 11:01:53;;;;;;;;;;;;;;;;;;2201728;59;1487;-77
2022/08/04 11:04:33;;;;;;;;;;;;;;;;;;2202560;59;1270;-77
2022/08/04 11:07:06;;;;;;;;;;;;;;;;;;2202310;67;1105;-77
2022/08/04 11:09:41;;;;;;;;;;;;;;;;;;2202189;67;1213;-76
2022/08/04 11:12:18;;;;;;;;;;;;;;;;;;2201494;59;1401;-77
2022/08/04 11:14:53;;;;;;;;;;;;;;;;;;2202673;67;1290;-77
2022/08/04 11:17:28;;;;;;;;;;;;;;;;;;2201629;59;1936;-76
2022/08/04 11:20:09;;;;;;;;;;;;;;;;;;2201895;59;1207;-77
2022/08/04 11:22:44;;;;;;;;;;;;;;;;;;2202814;67;1233;-77
2022/08/04 11:25:21;;;;;;;;;;;;;;;;;;2200943;67;1251;-77
2022/08/04 11:27:57;;;;;;;;;;;;;;;;;;2202531;67;1277;-77
2022/08/04 11:30:34;;;;;;;;;;;;;;;;;;2202624;59;1185;-77
2022/08/04 11:33:11;;;;;;;;;;;;;;;;;;2200966;59;1279;-77
2022/08/04 11:35:52;;;;;;;;;;;;;;;;;;2202077;59;1979;-77
2022/08/04 11:38:28;;;;;;;;;;;;;;;;;;2202355;59;1557;-76
2022/08/04 11:41:07;;;;;;;;;;;;;;;;;;2201146;67;1210;-77
2022/08/04 11:43:43;;;;;;;;;;;;;;;;;;2202167;67;1496;-76
2022/08/04 11:46:20;;;;;;;;;;;;;;;;;;2200292;59;1233;-77
2022/08/04 11:48:58;;;;;;;;;;;;;;;;;;2201450;67;1264;-77
2022/08/04 11:51:35;;;;;;;;;;;;;;;;;;2202162;67;1292;-77
2022/08/04 11:54:08;;;;;;;;;;;;;;;;;;2200308;59;1116;-76
2022/08/04 11:56:41;;;;;;;;;;;;;;;;;;2201968;59;1910;-77
2022/08/04 11:59:15;;;;;;;;;;;;;;;;;;2201696;67;1205;-77
2022/08/04 12:02:06;;;;;;;;;;;;;;;;;;2201362;59;1506;-77
2022/08/04 12:04:47;;;;;;;;;;;;;;;;;;2201489;59;1292;-76
2022/08/04 12:07:31;;;;;;;;;;;;;;;;;;2200381;67;1238;-77
2022/08/04 12:10:11;;;;;;;;;;;;;;;;;;2200911;67;1213;-77
2022/08/04 12:12:47;;;;;;;;;;;;;;;;;;2201608;59;1370;-78
2022/08/04 12:15:24;;;;;;;;;;;;;;;;;;2200500;59;1419;-77
2022/08/04 12:18:02;;;;;;;;;;;;;;;;;;2201039;67;1944;-77
2022/08/04 12:20:40;;;;;;;;;;;;;;;;;;2200905;67;1212;-76
2022/08/04 12:23:22;;;;;;;;;;;;;;;;;;2205935;53;3572;-65
2022/08/04 12:25:57;;;;;;;;;;;;;;;;;;2205257;67;1253;-65
2022/08/04 12:28:34;;;;;;;;;;;;;;;;;;2205292;67;1209;-66
2022/08/04 12:31:15;;;;;;;;;;;;;;;;;;2205702;67;1201;-66
2022/08/04 12:33:51;;;;;;;;;;;;;;;;;;2205841;67;1249;-64
2022/08/04 12:36:29;;;;;;;;;;;;;;;;;;2205352;59;1931;-65
2022/08/04 12:39:08;;;;;;;;;;;;;;;;;;2206429;59;1483;-65
2022/08/04 12:41:43;;;;;;;;;;;;;;;;;;2205794;67;1103;-65
2022/08/04 13:53:41;;;;;;;;;;;;;;;;;;2381755;53;1902;-64
2022/08/04 13:56:16;;;;;;;;;;;;;;;;;;2206919;59;2313;-64
2022/08/04 13:58:51;;;;;;;;;;;;;;;;;;2207154;59;1387;-64
2022/08/04 14:01:26;;;;;;;;;;;;;;;;;;2206457;59;2428;-64
2022/08/04 14:04:04;;;;;;;;;;;;;;;;;;2207200;59;1419;-66
2022/08/04 14:06:47;;;;;;;;;;;;;;;;;;2204855;67;1299;-65
2022/08/04 14:09:24;;;;;;;;;;;;;;;;;;2205223;67;2117;-65
2022/08/04 14:11:58;;;;;;;;;;;;;;;;;;2205655;59;1290;-64
2022/08/04 14:14:32;;;;;;;;;;;;;;;;;;2205805;67;1374;-63
2022/08/04 14:17:07;;;;;;;;;;;;;;;;;;2205832;59;1990;-63
2022/08/04 14:19:51;;;;;;;;;;;;;;;;;;2205336;67;1141;-65
2022/08/04 14:22:35;;;;;;;;;;;;;;;;;;2202529;67;2124;-65
2022/08/04 14:25:16;;;;;;;;;;;;;;;;;;2203534;67;2021;-65
2022/08/04 14:27:51;;;;;;;;;;;;;;;;;;2203150;67;1859;-65
2022/08/04 14:30:26;;;;;;;;;;;;;;;;;;2206556;59;1314;-65
2022/08/04 14:33:01;;;;;;;;;;;;;;;;;;2206547;67;1253;-63
2022/08/04 14:35:36;;;;;;;;;;;;;;;;;;2207059;59;1616;-65
2022/08/04 14:38:10;;;;;;;;;;;;;;;;;;2206168;59;1975;-64
2022/08/04 14:40:47;;;;;;;;;;;;;;;;;;2205652;59;1271;-64
2022/08/04 14:43:21;;;;;;;;;;;;;;;;;;2204635;59;1269;-63
2022/08/04 14:46:05;;;;;;;;;;;;;;;;;;2202672;67;1447;-64
2022/08/04 14:48:39;;;;;;;;;;;;;;;;;;2204905;59;1161;-64
2022/08/04 14:51:16;;;;;;;;;;;;;;;;;;2202342;67;1222;-63
2022/08/04 14:53:51;;;;;;;;;;;;;;;;;;2204631;59;1729;-64
2022/08/04 14:56:27;;;;;;;;;;;;;;;;;;2202138;67;2003;-64
2022/08/04 14:59:02;;;;;;;;;;;;;;;;;;2205946;59;1185;-65
2022/08/04 15:01:36;;;;;;;;;;;;;;;;;;2204840;67;1516;-62
2022/08/04 15:04:10;;;;;;;;;;;;;;;;;;2205330;59;1372;-65
2022/08/04 15:06:44;;;;;;;;;;;;;;;;;;2204710;67;1176;-65
2022/08/04 15:09:17;;;;;;;;;;;;;;;;;;2202224;59;1486;-64
2022/08/04 15:11:54;;;;;;;;;;;;;;;;;;2205643;59;1276;-66
2022/08/04 15:14:28;;;;;;;;;;;;;;;;;;2205357;59;1252;-64
2022/08/04 15:17:01;;;;;;;;;;;;;;;;;;2205706;59;1973;-64
2022/08/04 15:19:35;;;;;;;;;;;;;;;;;;2204357;59;1126;-65
2022/08/04 15:22:10;;;;;;;;;;;;;;;;;;2205896;59;1073;-64
2022/08/04 15:24:43;;;;;;;;;;;;;;;;;;2205172;59;1280;-64
2022/08/04 15:27:21;;;;;;;;;;;;;;;;;;2204823;67;1188;-65
2022/08/04 15:29:58;;;;;;;;;;;;;;;;;;2205283;59;1266;-65
2022/08/04 15:32:34;;;;;;;;;;;;;;;;;;2202184;67;1607;-65
2022/08/04 15:35:10;;;;;;;;;;;;;;;;;;2205679;67;1254;-63
2022/08/04 15:37:51;;;;;;;;;;;;;;;;;;2206237;59;1927;-64
2022/08/04 15:40:30;;;;;;;;;;;;;;;;;;2204769;67;1095;-64
2022/08/04 15:43:19;;;;;;;;;;;;;;;;;;2205837;67;1405;-64
2022/08/04 15:45:54;;;;;;;;;;;;;;;;;;2205313;59;1212;-65
2022/08/04 15:48:28;;;;;;;;;;;;;;;;;;2205079;67;1229;-63
2022/08/04 15:51:03;;;;;;;;;;;;;;;;;;2206744;59;1237;-65
2022/08/04 15:53:55;;;;;;;;;;;;;;;;;;2204645;59;1267;-65
2022/08/04 15:56:48;;;;;;;;;;;;;;;;;;2203808;59;1854;-64
2022/08/04 15:59:40;;;;;;;;;;;;;;;;;;2206941;59;1340;-63
2022/08/04 16:02:28;;;;;;;;;;;;;;;;;;2206187;59;1383;-66
2022/08/04 16:05:33;;;;;;;;;;;;;;;;;;2206192;59;1270;-66
2022/08/04 16:08:16;;;;;;;;;;;;;;;;;;2205672;67;1205;-64
2022/08/04 16:10:50;;;;;;;;;;;;;;;;;;2206263;59;1252;-64
2022/08/04 16:13:24;;;;;;;;;;;;;;;;;;2205866;59;1149;-64
2022/08/04 16:15:58;;;;;;;;;;;;;;;;;;2205796;67;1422;-64
2022/08/04 16:18:42;;;;;;;;;;;;;;;;;;2207303;67;1946;-65
2022/08/04 16:21:23;;;;;;;;;;;;;;;;;;2207126;67;1089;-65
2022/08/04 16:24:19;;;;;;;;;;;;;;;;;;2207672;67;1369;-65
2022/08/04 16:26:54;;;;;;;;;;;;;;;;;;2207298;67;1251;-66
2022/08/04 16:29:46;;;;;;;;;;;;;;;;;;2207102;67;1195;-64
2022/08/04 16:32:24;;;;;;;;;;;;;;;;;;2207239;59;1195;-65
2022/08/04 16:34:58;;;;;;;;;;;;;;;;;;2207120;67;1236;-65
2022/08/04 16:37:36;;;;;;;;;;;;;;;;;;2206200;59;1931;-65
2022/08/04 16:40:28;;;;;;;;;;;;;;;;;;2206194;67;1170;-65
2022/08/04 16:43:06;;;;;;;;;;;;;;;;;;2206510;67;1200;-63
2022/08/04 16:45:43;;;;;;;;;;;;;;;;;;2207246;67;1350;-65
2022/08/04 16:48:17;;;;;;;;;;;;;;;;;;2206210;67;1221;-64
2022/08/04 16:50:56;;;;;;;;;;;;;;;;;;2207305;67;1167;-64
2022/08/04 16:53:35;;;;;;;;;;;;;;;;;;2206448;59;1296;-65
2022/08/04 16:56:10;;;;;;;;;;;;;;;;;;2206009;67;1219;-65
2022/08/04 16:58:46;;;;;;;;;;;;;;;;;;2206445;59;2055;-61
2022/08/04 17:01:19;;;;;;;;;;;;;;;;;;2202522;67;2497;-65
2022/08/04 17:03:54;;;;;;;;;;;;;;;;;;2206193;59;1309;-64
2022/08/04 17:06:35;;;;;;;;;;;;;;;;;;2206186;67;1552;-65
2022/08/04 17:09:12;;;;;;;;;;;;;;;;;;2206029;67;1189;-65
2022/08/04 17:11:45;;;;;;;;;;;;;;;;;;2205839;59;1262;-63
2022/08/04 17:14:23;;;;;;;;;;;;;;;;;;2206491;67;1171;-64
2022/08/04 17:16:58;;;;;;;;;;;;;;;;;;2206214;59;1369;-65
2022/08/04 17:19:32;;;;;;;;;;;;;;;;;;2206352;67;1145;-64
2022/08/04 17:22:08;;;;;;;;;;;;;;;;;;2207339;67;1259;-65
2022/08/04 17:24:43;;;;;;;;;;;;;;;;;;2206999;67;1263;-63
2022/08/04 17:27:17;;;;;;;;;;;;;;;;;;2206779;67;1271;-64
2022/08/04 17:29:50;;;;;;;;;;;;;;;;;;2207415;67;1136;-65
2022/08/04 17:32:23;;;;;;;;;;;;;;;;;;2206477;67;1208;-65
2022/08/04 17:34:57;;;;;;;;;;;;;;;;;;2207342;67;1293;-63
2022/08/04 17:37:30;;;;;;;;;;;;;;;;;;2206670;59;1941;-65
2022/08/04 17:40:16;;;;;;;;;;;;;;;;;;2206508;67;1225;-63
2022/08/04 17:42:50;;;;;;;;;;;;;;;;;;2206714;67;1235;-65
2022/08/04 17:45:23;;;;;;;;;;;;;;;;;;2205854;67;1282;-63
2022/08/04 17:47:56;;;;;;;;;;;;;;;;;;2206739;67;1103;-64
2022/08/04 17:50:33;;;;;;;;;;;;;;;;;;2206120;67;1145;-63
2022/08/04 17:53:07;;;;;;;;;;;;;;;;;;2206692;67;1163;-64
2022/08/04 17:55:44;;;;;;;;;;;;;;;;;;2206750;67;1271;-63
2022/08/04 17:58:18;;;;;;;;;;;;;;;;;;2205582;59;1927;-62
2022/08/04 18:00:59;;;;;;;;;;;;;;;;;;2206202;67;1232;-63
2022/08/04 18:03:32;;;;;;;;;;;;;;;;;;2206096;59;1556;-61
2022/08/04 18:06:12;;;;;;;;;;;;;;;;;;2206479;67;1097;-60
2022/08/04 18:08:46;;;;;;;;;;;;;;;;;;2206554;67;1304;-64
2022/08/04 18:11:24;;;;;;;;;;;;;;;;;;2205980;59;1235;-65
2022/08/04 18:13:57;;;;;;;;;;;;;;;;;;2206475;67;1206;-62
2022/08/04 18:16:31;;;;;;;;;;;;;;;;;;2205960;59;1338;-65
2022/08/04 18:19:11;;;;;;;;;;;;;;;;;;2205775;67;1935;-65
2022/08/04 18:21:44;;;;;;;;;;;;;;;;;;2205996;67;1241;-65
2022/08/04 18:24:17;;;;;;;;;;;;;;;;;;2205652;59;1239;-65
2022/08/04 18:26:53;;;;;;;;;;;;;;;;;;2205669;67;1233;-65
2022/08/04 18:29:26;;;;;;;;;;;;;;;;;;2211869;67;1211;-65
2022/08/04 18:32:00;;;;;;;;;;;;;;;;;;2211006;67;1636;-65
2022/08/04 18:34:33;;;;;;;;;;;;;;;;;;2206096;67;1227;-64
2022/08/04 18:37:06;;;;;;;;;;;;;;;;;;2204994;59;1550;-63
2022/08/04 18:39:39;;;;;;;;;;;;;;;;;;2205537;67;1936;-63
2022/08/04 18:42:15;;;;;;;;;;;;;;;;;;2205270;67;1239;-63
2022/08/04 18:44:48;;;;;;;;;;;;;;;;;;2205751;67;1263;-63
2022/08/04 18:47:23;;;;;;;;;;;;;;;;;;2205427;67;1282;-63
2022/08/04 18:49:57;;;;;;;;;;;;;;;;;;2205884;67;1205;-64
2022/08/04 18:52:30;;;;;;;;;;;;;;;;;;2205514;67;1206;-62
2022/08/04 18:55:03;;;;;;;;;;;;;;;;;;2206053;59;1195;-62
2022/08/04 18:57:39;;;;;;;;;;;;;;;;;;2204963;67;1993;-63
2022/08/04 19:00:13;;;;;;;;;;;;;;;;;;2205419;67;1350;-63
2022/08/04 19:02:46;;;;;;;;;;;;;;;;;;2205259;59;1509;-62
2022/08/04 19:05:20;;;;;;;;;;;;;;;;;;2204707;59;1303;-63
2022/08/04 19:07:53;;;;;;;;;;;;;;;;;;2205072;67;1206;-65
2022/08/04 19:10:26;;;;;;;;;;;;;;;;;;2205310;67;1258;-65
2022/08/04 19:13:02;;;;;;;;;;;;;;;;;;2205304;59;1468;-62
2022/08/04 19:15:35;;;;;;;;;;;;;;;;;;2204310;59;1312;-63
2022/08/04 19:18:08;;;;;;;;;;;;;;;;;;2205607;67;1919;-64
2022/08/04 19:20:41;;;;;;;;;;;;;;;;;;2204918;67;1194;-63
2022/08/04 19:23:14;;;;;;;;;;;;;;;;;;2206600;67;1285;-64
2022/08/04 19:25:48;;;;;;;;;;;;;;;;;;2205952;67;1417;-65
2022/08/04 19:28:24;;;;;;;;;;;;;;;;;;2205942;67;1242;-65
2022/08/04 19:30:58;;;;;;;;;;;;;;;;;;2206687;67;1296;-62
2022/08/04 19:33:31;;;;;;;;;;;;;;;;;;2205306;67;1254;-62
2022/08/04 19:36:04;;;;;;;;;;;;;;;;;;2207364;59;1279;-65
2022/08/04 19:38:37;;;;;;;;;;;;;;;;;;2205941;59;1937;-65
2022/08/04 19:41:10;;;;;;;;;;;;;;;;;;2206154;67;1286;-64
2022/08/04 19:43:46;;;;;;;;;;;;;;;;;;2206118;67;1185;-63
2022/08/04 19:46:20;;;;;;;;;;;;;;;;;;2205855;67;1259;-64
2022/08/04 19:48:53;;;;;;;;;;;;;;;;;;2206166;67;1268;-64
2022/08/04 19:51:26;;;;;;;;;;;;;;;;;;2205568;67;1229;-65
2022/08/04 19:53:59;;;;;;;;;;;;;;;;;;2206125;59;1255;-64
2022/08/04 19:56:33;;;;;;;;;;;;;;;;;;2205982;67;1161;-64
2022/08/04 19:59:09;;;;;;;;;;;;;;;;;;2206347;67;1931;-64
2022/08/04 20:01:42;;;;;;;;;;;;;;;;;;2205037;59;1505;-64
2022/08/04 20:04:16;;;;;;;;;;;;;;;;;;2205765;59;1713;-65
2022/08/04 20:17:32;;;;;;;;;;;;;;;;;;2297684;53;2864;-55
2022/08/04 20:20:06;;;;;;;;;;;;;;;;;;2206853;59;1936;-56
2022/08/04 20:22:39;;;;;;;;;;;;;;;;;;2210257;59;1196;-55
2022/08/04 20:25:12;;;;;;;;;;;;;;;;;;2210378;67;1214;-58
2022/08/04 20:27:46;;;;;;;;;;;;;;;;;;2209903;59;1540;-53